sensor_id;sensor_type;location;lat;lon;timestamp;temperature;humidity
14555;DHT22;7364;50.870;4.722;2024-03-08T00:00:11;7.50;99.90
14555;DHT22;7364;50.870;4.722;2024-03-08T00:02:39;7.60;99.90
14555;DHT22;7364;50.870;4.722;2024-03-08T00:05:09;7.90;99.90
14555;DHT22;7364;50.870;4.722;2024-03-08T00:07:37;7.90;99.80
14555;DHT22;7364;50.870;4.722;2024-03-08T00:10:09;7.90;99.90
14555;DHT22;7364;50.870;4.722;2024-03-08T00:12:37;7.90;99.80
14555;DHT22;7364;50.870;4.722;2024-03-08T00:15:05;7.80;99.90
14555;DHT22;7364;50.870;4.722;2024-03-08T00:17:33;7.80;99.90
14555;DHT22;7364;50.870;4.722;2024-03-08T00:20:01;7.70;99.90
14555;DHT22;7364;50.870;4.722;2024-03-08T00:22:30;7.80;99.90
14555;DHT22;7364;50.870;4.722;2024-03-08T00:24:58;7.80;99.90
14555;DHT22;7364;50.870;4.722;2024-03-08T00:27:25;7.70;99.90
14555;DHT22;7364;50.870;4.722;2024-03-08T00:29:53;7.80;99.90
14555;DHT22;7364;50.870;4.722;2024-03-08T00:32:21;7.80;99.90
14555;DHT22;7364;50.870;4.722;2024-03-08T00:34:49;7.90;99.70
14555;DHT22;7364;50.870;4.722;2024-03-08T00:37:17;7.80;99.60
14555;DHT22;7364;50.870;4.722;2024-03-08T00:39:47;7.80;99.50
14555;DHT22;7364;50.870;4.722;2024-03-08T00:42:15;7.70;99.80
14555;DHT22;7364;50.870;4.722;2024-03-08T00:44:44;7.60;99.90
14555;DHT22;7364;50.870;4.722;2024-03-08T00:47:13;7.50;99.90
14555;DHT22;7364;50.870;4.722;2024-03-08T00:49:41;7.50;99.90
14555;DHT22;7364;50.870;4.722;2024-03-08T00:52:09;7.50;99.90
14555;DHT22;7364;50.870;4.722;2024-03-08T00:54:37;7.70;99.90
14555;DHT22;7364;50.870;4.722;2024-03-08T00:57:06;7.80;99.70
14555;DHT22;7364;50.870;4.722;2024-03-08T00:59:33;7.70;99.70
14555;DHT22;7364;50.870;4.722;2024-03-08T01:02:01;7.70;99.70
14555;DHT22;7364;50.870;4.722;2024-03-08T01:04:28;7.60;99.90
14555;DHT22;7364;50.870;4.722;2024-03-08T01:06:56;7.50;99.90
14555;DHT22;7364;50.870;4.722;2024-03-08T01:09:24;7.50;99.90
14555;DHT22;7364;50.870;4.722;2024-03-08T01:11:52;7.50;99.90
14555;DHT22;7364;50.870;4.722;2024-03-08T01:14:21;7.50;99.90
14555;DHT22;7364;50.870;4.722;2024-03-08T01:16:49;7.40;99.90
14555;DHT22;7364;50.870;4.722;2024-03-08T01:19:16;7.40;99.90
14555;DHT22;7364;50.870;4.722;2024-03-08T01:21:43;7.40;99.90
14555;DHT22;7364;50.870;4.722;2024-03-08T01:24:11;7.30;99.90
14555;DHT22;7364;50.870;4.722;2024-03-08T01:26:38;7.40;99.90
14555;DHT22;7364;50.870;4.722;2024-03-08T01:29:05;7.40;99.90
14555;DHT22;7364;50.870;4.722;2024-03-08T01:31:35;7.40;99.80
14555;DHT22;7364;50.870;4.722;2024-03-08T01:34:03;7.40;99.90
14555;DHT22;7364;50.870;4.722;2024-03-08T01:36:30;7.40;99.80
14555;DHT22;7364;50.870;4.722;2024-03-08T01:38:57;7.40;99.70
14555;DHT22;7364;50.870;4.722;2024-03-08T01:41:25;7.50;99.50
14555;DHT22;7364;50.870;4.722;2024-03-08T01:43:55;7.40;99.50
14555;DHT22;7364;50.870;4.722;2024-03-08T01:46:23;7.40;99.50
14555;DHT22;7364;50.870;4.722;2024-03-08T01:48:52;7.30;99.70
14555;DHT22;7364;50.870;4.722;2024-03-08T01:51:19;7.20;99.70
14555;DHT22;7364;50.870;4.722;2024-03-08T01:53:47;7.30;99.50
14555;DHT22;7364;50.870;4.722;2024-03-08T01:56:15;7.20;99.50
14555;DHT22;7364;50.870;4.722;2024-03-08T01:58:44;7.20;99.50
14555;DHT22;7364;50.870;4.722;2024-03-08T02:01:13;7.10;99.60
14555;DHT22;7364;50.870;4.722;2024-03-08T02:03:44;7.20;99.60
14555;DHT22;7364;50.870;4.722;2024-03-08T02:06:13;7.10;99.50
14555;DHT22;7364;50.870;4.722;2024-03-08T02:08:42;7.10;99.90
14555;DHT22;7364;50.870;4.722;2024-03-08T02:11:11;7.20;99.50
14555;DHT22;7364;50.870;4.722;2024-03-08T02:13:38;7.20;99.30
14555;DHT22;7364;50.870;4.722;2024-03-08T02:16:05;7.10;99.20
14555;DHT22;7364;50.870;4.722;2024-03-08T02:18:34;7.10;99.70
14555;DHT22;7364;50.870;4.722;2024-03-08T02:21:03;7.10;99.50
14555;DHT22;7364;50.870;4.722;2024-03-08T02:23:32;7.00;99.50
14555;DHT22;7364;50.870;4.722;2024-03-08T02:25:59;7.00;99.60
14555;DHT22;7364;50.870;4.722;2024-03-08T02:28:26;7.00;99.80
14555;DHT22;7364;50.870;4.722;2024-03-08T02:30:54;6.90;99.50
14555;DHT22;7364;50.870;4.722;2024-03-08T02:33:23;7.00;99.70
14555;DHT22;7364;50.870;4.722;2024-03-08T02:35:50;7.00;99.40
14555;DHT22;7364;50.870;4.722;2024-03-08T02:38:20;7.00;99.40
14555;DHT22;7364;50.870;4.722;2024-03-08T02:40:49;6.90;99.50
14555;DHT22;7364;50.870;4.722;2024-03-08T02:43:17;6.80;99.60
14555;DHT22;7364;50.870;4.722;2024-03-08T02:45:45;6.80;99.80
14555;DHT22;7364;50.870;4.722;2024-03-08T02:48:14;6.80;99.80
14555;DHT22;7364;50.870;4.722;2024-03-08T02:50:42;6.70;99.80
14555;DHT22;7364;50.870;4.722;2024-03-08T02:53:10;6.60;99.90
14555;DHT22;7364;50.870;4.722;2024-03-08T02:55:40;6.70;99.90
14555;DHT22;7364;50.870;4.722;2024-03-08T02:58:08;6.70;99.90
14555;DHT22;7364;50.870;4.722;2024-03-08T03:00:36;6.80;99.90
14555;DHT22;7364;50.870;4.722;2024-03-08T03:03:04;6.80;99.80
14555;DHT22;7364;50.870;4.722;2024-03-08T03:05:35;6.80;99.70
14555;DHT22;7364;50.870;4.722;2024-03-08T03:08:02;6.70;99.90
14555;DHT22;7364;50.870;4.722;2024-03-08T03:10:34;6.70;99.90
14555;DHT22;7364;50.870;4.722;2024-03-08T03:13:03;6.70;99.80
14555;DHT22;7364;50.870;4.722;2024-03-08T03:15:31;6.80;99.80
14555;DHT22;7364;50.870;4.722;2024-03-08T03:17:59;6.70;99.70
14555;DHT22;7364;50.870;4.722;2024-03-08T03:20:27;6.70;99.90
14555;DHT22;7364;50.870;4.722;2024-03-08T03:22:58;6.60;99.70
14555;DHT22;7364;50.870;4.722;2024-03-08T03:25:27;6.50;99.90
14555;DHT22;7364;50.870;4.722;2024-03-08T03:28:00;6.60;99.90
14555;DHT22;7364;50.870;4.722;2024-03-08T03:30:28;6.60;99.90
14555;DHT22;7364;50.870;4.722;2024-03-08T03:32:59;6.70;99.90
14555;DHT22;7364;50.870;4.722;2024-03-08T03:35:28;6.60;99.90
14555;DHT22;7364;50.870;4.722;2024-03-08T03:37:56;6.60;99.90
14555;DHT22;7364;50.870;4.722;2024-03-08T03:40:32;6.50;99.90
14555;DHT22;7364;50.870;4.722;2024-03-08T03:43:00;6.40;99.90
14555;DHT22;7364;50.870;4.722;2024-03-08T03:45:28;6.50;99.90
14555;DHT22;7364;50.870;4.722;2024-03-08T03:47:59;6.50;99.90
14555;DHT22;7364;50.870;4.722;2024-03-08T03:50:28;6.30;99.90
14555;DHT22;7364;50.870;4.722;2024-03-08T03:52:55;6.40;99.90
14555;DHT22;7364;50.870;4.722;2024-03-08T03:55:22;6.20;99.90
14555;DHT22;7364;50.870;4.722;2024-03-08T03:57:50;6.30;99.90
14555;DHT22;7364;50.870;4.722;2024-03-08T04:00:18;6.50;99.90
14555;DHT22;7364;50.870;4.722;2024-03-08T04:02:47;6.30;99.90
14555;DHT22;7364;50.870;4.722;2024-03-08T04:05:14;6.30;99.90
14555;DHT22;7364;50.870;4.722;2024-03-08T04:07:41;6.20;99.90
14555;DHT22;7364;50.870;4.722;2024-03-08T04:10:11;6.10;99.90
14555;DHT22;7364;50.870;4.722;2024-03-08T04:12:39;6.20;99.90
14555;DHT22;7364;50.870;4.722;2024-03-08T04:15:07;6.20;99.90
14555;DHT22;7364;50.870;4.722;2024-03-08T04:17:34;6.20;99.90
14555;DHT22;7364;50.870;4.722;2024-03-08T04:20:05;6.30;99.90
14555;DHT22;7364;50.870;4.722;2024-03-08T04:22:36;6.30;99.90
14555;DHT22;7364;50.870;4.722;2024-03-08T04:25:03;6.30;99.90
14555;DHT22;7364;50.870;4.722;2024-03-08T04:27:32;6.10;99.90
14555;DHT22;7364;50.870;4.722;2024-03-08T04:30:00;6.10;99.90
14555;DHT22;7364;50.870;4.722;2024-03-08T04:32:27;6.10;99.90
14555;DHT22;7364;50.870;4.722;2024-03-08T04:34:55;6.10;99.90
14555;DHT22;7364;50.870;4.722;2024-03-08T04:37:24;6.20;99.90
14555;DHT22;7364;50.870;4.722;2024-03-08T04:39:51;6.10;99.90
14555;DHT22;7364;50.870;4.722;2024-03-08T04:42:18;6.10;99.90
14555;DHT22;7364;50.870;4.722;2024-03-08T04:44:46;6.20;99.90
14555;DHT22;7364;50.870;4.722;2024-03-08T04:47:13;6.10;99.90
14555;DHT22;7364;50.870;4.722;2024-03-08T04:49:42;6.10;99.90
14555;DHT22;7364;50.870;4.722;2024-03-08T04:52:09;6.20;99.90
14555;DHT22;7364;50.870;4.722;2024-03-08T04:54:38;6.20;99.90
14555;DHT22;7364;50.870;4.722;2024-03-08T04:57:05;6.30;99.90
14555;DHT22;7364;50.870;4.722;2024-03-08T04:59:33;6.30;99.90
14555;DHT22;7364;50.870;4.722;2024-03-08T05:02:02;6.30;99.90
14555;DHT22;7364;50.870;4.722;2024-03-08T05:04:29;6.30;99.90
14555;DHT22;7364;50.870;4.722;2024-03-08T05:06:56;6.30;99.90
14555;DHT22;7364;50.870;4.722;2024-03-08T05:09:27;6.30;99.90
14555;DHT22;7364;50.870;4.722;2024-03-08T05:11:56;6.30;99.90
14555;DHT22;7364;50.870;4.722;2024-03-08T05:14:24;6.20;99.90
14555;DHT22;7364;50.870;4.722;2024-03-08T05:16:51;6.10;99.90
14555;DHT22;7364;50.870;4.722;2024-03-08T05:19:20;6.10;99.90
14555;DHT22;7364;50.870;4.722;2024-03-08T05:21:48;6.00;99.90
14555;DHT22;7364;50.870;4.722;2024-03-08T05:24:16;6.10;99.90
14555;DHT22;7364;50.870;4.722;2024-03-08T05:26:43;6.10;99.90
14555;DHT22;7364;50.870;4.722;2024-03-08T05:29:12;6.10;99.90
14555;DHT22;7364;50.870;4.722;2024-03-08T05:31:46;6.20;99.90
14555;DHT22;7364;50.870;4.722;2024-03-08T05:34:14;6.10;99.90
14555;DHT22;7364;50.870;4.722;2024-03-08T05:36:41;5.90;99.90
14555;DHT22;7364;50.870;4.722;2024-03-08T05:39:10;5.90;99.90
14555;DHT22;7364;50.870;4.722;2024-03-08T05:41:38;5.90;99.90
14555;DHT22;7364;50.870;4.722;2024-03-08T05:44:06;5.80;99.90
14555;DHT22;7364;50.870;4.722;2024-03-08T05:46:35;5.90;99.90
14555;DHT22;7364;50.870;4.722;2024-03-08T05:49:02;5.80;99.90
14555;DHT22;7364;50.870;4.722;2024-03-08T05:51:31;5.90;99.90
14555;DHT22;7364;50.870;4.722;2024-03-08T05:54:00;5.90;99.90
14555;DHT22;7364;50.870;4.722;2024-03-08T05:56:29;5.90;99.90
14555;DHT22;7364;50.870;4.722;2024-03-08T05:58:56;5.80;99.90
14555;DHT22;7364;50.870;4.722;2024-03-08T06:01:24;5.80;99.90
14555;DHT22;7364;50.870;4.722;2024-03-08T06:03:54;5.60;99.90
14555;DHT22;7364;50.870;4.722;2024-03-08T06:06:23;5.60;99.90
14555;DHT22;7364;50.870;4.722;2024-03-08T06:08:50;5.60;99.90
14555;DHT22;7364;50.870;4.722;2024-03-08T06:11:18;5.60;99.90
14555;DHT22;7364;50.870;4.722;2024-03-08T06:13:46;5.60;99.90
14555;DHT22;7364;50.870;4.722;2024-03-08T06:16:13;5.60;99.90
14555;DHT22;7364;50.870;4.722;2024-03-08T06:18:41;5.50;99.90
14555;DHT22;7364;50.870;4.722;2024-03-08T06:21:09;5.50;99.90
14555;DHT22;7364;50.870;4.722;2024-03-08T06:23:38;5.70;99.90
14555;DHT22;7364;50.870;4.722;2024-03-08T06:26:06;5.70;99.90
14555;DHT22;7364;50.870;4.722;2024-03-08T06:28:33;5.80;99.90
14555;DHT22;7364;50.870;4.722;2024-03-08T06:31:02;5.70;99.90
14555;DHT22;7364;50.870;4.722;2024-03-08T06:33:30;5.70;99.90
14555;DHT22;7364;50.870;4.722;2024-03-08T06:35:58;5.70;99.90
14555;DHT22;7364;50.870;4.722;2024-03-08T06:38:27;5.80;99.90
14555;DHT22;7364;50.870;4.722;2024-03-08T06:40:54;5.70;99.90
14555;DHT22;7364;50.870;4.722;2024-03-08T06:43:21;5.80;99.90
14555;DHT22;7364;50.870;4.722;2024-03-08T06:45:50;5.90;99.90
14555;DHT22;7364;50.870;4.722;2024-03-08T06:48:18;5.80;99.90
14555;DHT22;7364;50.870;4.722;2024-03-08T06:50:46;5.90;99.90
14555;DHT22;7364;50.870;4.722;2024-03-08T06:53:13;6.00;99.90
14555;DHT22;7364;50.870;4.722;2024-03-08T06:55:42;6.00;99.90
14555;DHT22;7364;50.870;4.722;2024-03-08T06:58:10;6.00;99.90
14555;DHT22;7364;50.870;4.722;2024-03-08T07:00:37;5.90;99.90
14555;DHT22;7364;50.870;4.722;2024-03-08T07:03:07;5.90;99.90
14555;DHT22;7364;50.870;4.722;2024-03-08T07:05:38;5.90;99.90
14555;DHT22;7364;50.870;4.722;2024-03-08T07:08:06;5.90;99.90
14555;DHT22;7364;50.870;4.722;2024-03-08T07:10:34;6.00;99.90
14555;DHT22;7364;50.870;4.722;2024-03-08T07:13:04;6.00;99.90
14555;DHT22;7364;50.870;4.722;2024-03-08T07:15:31;6.00;99.90
14555;DHT22;7364;50.870;4.722;2024-03-08T07:17:59;6.10;99.90
14555;DHT22;7364;50.870;4.722;2024-03-08T07:20:26;6.00;99.90
14555;DHT22;7364;50.870;4.722;2024-03-08T07:22:54;6.10;99.90
14555;DHT22;7364;50.870;4.722;2024-03-08T07:25:22;6.20;99.90
14555;DHT22;7364;50.870;4.722;2024-03-08T07:27:51;6.20;99.90
14555;DHT22;7364;50.870;4.722;2024-03-08T07:30:20;6.30;99.90
14555;DHT22;7364;50.870;4.722;2024-03-08T07:33:05;6.40;99.90
14555;DHT22;7364;50.870;4.722;2024-03-08T07:35:33;6.50;99.90
14555;DHT22;7364;50.870;4.722;2024-03-08T07:38:03;6.50;99.90
14555;DHT22;7364;50.870;4.722;2024-03-08T07:40:31;6.30;99.90
14555;DHT22;7364;50.870;4.722;2024-03-08T07:42:59;6.20;99.90
14555;DHT22;7364;50.870;4.722;2024-03-08T07:45:28;6.40;99.90
14555;DHT22;7364;50.870;4.722;2024-03-08T07:47:56;6.50;99.90
14555;DHT22;7364;50.870;4.722;2024-03-08T07:50:23;6.50;99.90
14555;DHT22;7364;50.870;4.722;2024-03-08T07:52:51;6.60;99.90
14555;DHT22;7364;50.870;4.722;2024-03-08T07:55:18;6.70;99.90
14555;DHT22;7364;50.870;4.722;2024-03-08T07:57:46;6.90;99.90
14555;DHT22;7364;50.870;4.722;2024-03-08T08:00:15;6.80;99.90
14555;DHT22;7364;50.870;4.722;2024-03-08T08:02:46;6.80;99.90
14555;DHT22;7364;50.870;4.722;2024-03-08T08:05:15;7.00;99.90
14555;DHT22;7364;50.870;4.722;2024-03-08T08:07:44;7.10;99.90
14555;DHT22;7364;50.870;4.722;2024-03-08T08:10:12;7.20;99.80
14555;DHT22;7364;50.870;4.722;2024-03-08T08:12:45;7.20;99.70
14555;DHT22;7364;50.870;4.722;2024-03-08T08:15:13;7.20;99.90
14555;DHT22;7364;50.870;4.722;2024-03-08T08:17:41;7.30;99.40
14555;DHT22;7364;50.870;4.722;2024-03-08T08:20:11;7.30;99.70
14555;DHT22;7364;50.870;4.722;2024-03-08T08:22:38;7.20;99.90
14555;DHT22;7364;50.870;4.722;2024-03-08T08:25:07;7.10;99.90
14555;DHT22;7364;50.870;4.722;2024-03-08T08:27:34;7.20;99.80
14555;DHT22;7364;50.870;4.722;2024-03-08T08:30:04;7.30;99.70
14555;DHT22;7364;50.870;4.722;2024-03-08T08:32:34;7.10;99.80
14555;DHT22;7364;50.870;4.722;2024-03-08T08:35:03;7.20;99.90
14555;DHT22;7364;50.870;4.722;2024-03-08T08:37:32;7.30;99.90
14555;DHT22;7364;50.870;4.722;2024-03-08T08:40:01;7.30;99.90
14555;DHT22;7364;50.870;4.722;2024-03-08T08:42:36;7.40;99.90
14555;DHT22;7364;50.870;4.722;2024-03-08T08:45:05;7.30;99.90
14555;DHT22;7364;50.870;4.722;2024-03-08T08:47:34;7.30;99.80
14555;DHT22;7364;50.870;4.722;2024-03-08T08:50:02;7.50;99.60
14555;DHT22;7364;50.870;4.722;2024-03-08T08:52:31;7.60;99.50
14555;DHT22;7364;50.870;4.722;2024-03-08T08:55:00;7.70;99.10
14555;DHT22;7364;50.870;4.722;2024-03-08T08:57:29;7.60;99.30
14555;DHT22;7364;50.870;4.722;2024-03-08T08:59:58;7.60;99.80
14555;DHT22;7364;50.870;4.722;2024-03-08T09:02:26;7.50;99.70
14555;DHT22;7364;50.870;4.722;2024-03-08T09:04:54;7.50;99.80
14555;DHT22;7364;50.870;4.722;2024-03-08T09:07:22;7.90;99.40
14555;DHT22;7364;50.870;4.722;2024-03-08T09:09:51;7.90;98.90
14555;DHT22;7364;50.870;4.722;2024-03-08T09:12:23;8.00;98.80
14555;DHT22;7364;50.870;4.722;2024-03-08T09:14:50;8.00;99.20
14555;DHT22;7364;50.870;4.722;2024-03-08T09:17:17;8.00;98.70
14555;DHT22;7364;50.870;4.722;2024-03-08T09:19:46;8.00;98.60
14555;DHT22;7364;50.870;4.722;2024-03-08T09:22:14;8.10;98.70
14555;DHT22;7364;50.870;4.722;2024-03-08T09:24:41;8.10;98.30
14555;DHT22;7364;50.870;4.722;2024-03-08T09:27:11;8.50;97.40
14555;DHT22;7364;50.870;4.722;2024-03-08T09:29:38;8.60;97.30
14555;DHT22;7364;50.870;4.722;2024-03-08T09:32:06;8.70;97.10
14555;DHT22;7364;50.870;4.722;2024-03-08T09:34:33;8.40;97.60
14555;DHT22;7364;50.870;4.722;2024-03-08T09:37:00;8.20;97.80
14555;DHT22;7364;50.870;4.722;2024-03-08T09:39:30;8.30;98.10
14555;DHT22;7364;50.870;4.722;2024-03-08T09:41:59;8.40;97.80
14555;DHT22;7364;50.870;4.722;2024-03-08T09:44:28;8.70;97.40
14555;DHT22;7364;50.870;4.722;2024-03-08T09:46:58;8.90;97.30
14555;DHT22;7364;50.870;4.722;2024-03-08T09:49:28;9.20;97.30
14555;DHT22;7364;50.870;4.722;2024-03-08T09:51:56;9.60;96.60
14555;DHT22;7364;50.870;4.722;2024-03-08T09:54:24;9.70;96.10
14555;DHT22;7364;50.870;4.722;2024-03-08T09:56:52;10.20;95.00
14555;DHT22;7364;50.870;4.722;2024-03-08T09:59:19;10.50;94.50
14555;DHT22;7364;50.870;4.722;2024-03-08T10:02:13;10.70;94.10
14555;DHT22;7364;50.870;4.722;2024-03-08T10:04:43;11.40;92.70
14555;DHT22;7364;50.870;4.722;2024-03-08T10:07:12;11.80;91.60
14555;DHT22;7364;50.870;4.722;2024-03-08T10:09:39;12.00;91.20
14555;DHT22;7364;50.870;4.722;2024-03-08T10:12:08;11.80;91.70
14555;DHT22;7364;50.870;4.722;2024-03-08T10:14:40;12.00;91.20
14555;DHT22;7364;50.870;4.722;2024-03-08T10:17:09;11.70;91.70
14555;DHT22;7364;50.870;4.722;2024-03-08T10:19:37;11.60;91.70
14555;DHT22;7364;50.870;4.722;2024-03-08T10:22:05;11.70;91.90
14555;DHT22;7364;50.870;4.722;2024-03-08T10:24:32;12.10;91.60
14555;DHT22;7364;50.870;4.722;2024-03-08T10:27:01;12.60;90.30
14555;DHT22;7364;50.870;4.722;2024-03-08T10:29:31;13.00;90.10
14555;DHT22;7364;50.870;4.722;2024-03-08T10:31:58;13.30;90.10
14555;DHT22;7364;50.870;4.722;2024-03-08T10:34:30;13.10;90.20
14555;DHT22;7364;50.870;4.722;2024-03-08T10:37:04;13.40;89.60
14555;DHT22;7364;50.870;4.722;2024-03-08T10:39:35;13.90;87.30
14555;DHT22;7364;50.870;4.722;2024-03-08T10:42:04;14.40;85.50
14555;DHT22;7364;50.870;4.722;2024-03-08T10:44:44;14.30;85.60
14555;DHT22;7364;50.870;4.722;2024-03-08T10:47:19;14.30;85.10
14555;DHT22;7364;50.870;4.722;2024-03-08T10:49:55;14.20;85.80
14555;DHT22;7364;50.870;4.722;2024-03-08T10:52:30;14.50;85.00
14555;DHT22;7364;50.870;4.722;2024-03-08T10:54:59;15.10;84.70
14555;DHT22;7364;50.870;4.722;2024-03-08T10:57:28;15.50;82.10
14555;DHT22;7364;50.870;4.722;2024-03-08T10:59:55;14.80;84.20
14555;DHT22;7364;50.870;4.722;2024-03-08T11:02:26;15.20;83.00
14555;DHT22;7364;50.870;4.722;2024-03-08T11:04:55;15.80;81.30
14555;DHT22;7364;50.870;4.722;2024-03-08T11:07:25;16.40;79.00
14555;DHT22;7364;50.870;4.722;2024-03-08T11:09:53;16.10;79.70
14555;DHT22;7364;50.870;4.722;2024-03-08T11:12:25;16.60;78.10
14555;DHT22;7364;50.870;4.722;2024-03-08T11:14:52;16.90;77.80
14555;DHT22;7364;50.870;4.722;2024-03-08T11:17:40;17.10;76.70
14555;DHT22;7364;50.870;4.722;2024-03-08T11:20:11;17.10;75.40
14555;DHT22;7364;50.870;4.722;2024-03-08T11:22:47;17.80;74.50
14555;DHT22;7364;50.870;4.722;2024-03-08T11:25:35;18.10;73.40
14555;DHT22;7364;50.870;4.722;2024-03-08T11:28:10;17.70;74.20
14555;DHT22;7364;50.870;4.722;2024-03-08T11:30:43;17.90;74.10
14555;DHT22;7364;50.870;4.722;2024-03-08T11:33:13;18.20;72.30
14555;DHT22;7364;50.870;4.722;2024-03-08T11:35:42;18.70;70.90
14555;DHT22;7364;50.870;4.722;2024-03-08T11:38:12;19.10;69.30
14555;DHT22;7364;50.870;4.722;2024-03-08T11:40:40;19.00;69.30
14555;DHT22;7364;50.870;4.722;2024-03-08T11:43:09;19.30;69.10
14555;DHT22;7364;50.870;4.722;2024-03-08T11:45:37;19.50;68.00
14555;DHT22;7364;50.870;4.722;2024-03-08T11:48:07;20.10;66.30
14555;DHT22;7364;50.870;4.722;2024-03-08T11:50:34;20.60;65.30
14555;DHT22;7364;50.870;4.722;2024-03-08T11:53:04;20.20;64.40
14555;DHT22;7364;50.870;4.722;2024-03-08T11:55:32;20.50;63.80
14555;DHT22;7364;50.870;4.722;2024-03-08T11:58:04;20.70;62.90
14555;DHT22;7364;50.870;4.722;2024-03-08T12:00:34;20.90;61.40
14555;DHT22;7364;50.870;4.722;2024-03-08T12:03:05;20.90;61.50
14555;DHT22;7364;50.870;4.722;2024-03-08T12:05:33;21.00;61.80
14555;DHT22;7364;50.870;4.722;2024-03-08T12:08:01;21.30;62.50
14555;DHT22;7364;50.870;4.722;2024-03-08T12:10:30;21.60;60.50
14555;DHT22;7364;50.870;4.722;2024-03-08T12:12:58;21.80;59.80
14555;DHT22;7364;50.870;4.722;2024-03-08T12:15:28;21.60;59.00
14555;DHT22;7364;50.870;4.722;2024-03-08T12:17:55;21.90;58.90
14555;DHT22;7364;50.870;4.722;2024-03-08T12:20:24;21.80;57.90
14555;DHT22;7364;50.870;4.722;2024-03-08T12:22:52;22.10;58.60
14555;DHT22;7364;50.870;4.722;2024-03-08T12:25:25;22.40;57.70
14555;DHT22;7364;50.870;4.722;2024-03-08T12:27:54;22.60;58.40
14555;DHT22;7364;50.870;4.722;2024-03-08T12:30:24;22.70;57.50
14555;DHT22;7364;50.870;4.722;2024-03-08T12:32:54;23.00;57.30
14555;DHT22;7364;50.870;4.722;2024-03-08T12:35:23;22.60;57.40
14555;DHT22;7364;50.870;4.722;2024-03-08T12:37:52;22.70;57.10
14555;DHT22;7364;50.870;4.722;2024-03-08T12:40:25;23.00;56.80
14555;DHT22;7364;50.870;4.722;2024-03-08T12:42:55;23.00;56.10
14555;DHT22;7364;50.870;4.722;2024-03-08T12:45:23;23.10;55.80
14555;DHT22;7364;50.870;4.722;2024-03-08T12:47:51;23.10;56.50
14555;DHT22;7364;50.870;4.722;2024-03-08T12:50:19;23.20;55.80
14555;DHT22;7364;50.870;4.722;2024-03-08T12:52:46;23.50;55.60
14555;DHT22;7364;50.870;4.722;2024-03-08T12:55:14;23.70;54.10
14555;DHT22;7364;50.870;4.722;2024-03-08T12:57:42;23.80;53.80
14555;DHT22;7364;50.870;4.722;2024-03-08T13:00:12;23.90;54.20
14555;DHT22;7364;50.870;4.722;2024-03-08T13:02:44;23.60;54.80
14555;DHT22;7364;50.870;4.722;2024-03-08T13:05:12;23.60;54.60
14555;DHT22;7364;50.870;4.722;2024-03-08T13:07:40;23.50;54.50
14555;DHT22;7364;50.870;4.722;2024-03-08T13:10:11;23.10;55.40
14555;DHT22;7364;50.870;4.722;2024-03-08T13:12:40;23.40;54.60
14555;DHT22;7364;50.870;4.722;2024-03-08T13:15:08;23.80;54.60
14555;DHT22;7364;50.870;4.722;2024-03-08T13:17:39;23.90;54.60
14555;DHT22;7364;50.870;4.722;2024-03-08T13:20:07;24.10;54.50
14555;DHT22;7364;50.870;4.722;2024-03-08T13:22:35;24.80;53.80
14555;DHT22;7364;50.870;4.722;2024-03-08T13:25:03;25.10;52.80
14555;DHT22;7364;50.870;4.722;2024-03-08T13:27:31;25.50;53.10
14555;DHT22;7364;50.870;4.722;2024-03-08T13:29:58;25.20;53.30
14555;DHT22;7364;50.870;4.722;2024-03-08T13:32:25;25.50;52.00
14555;DHT22;7364;50.870;4.722;2024-03-08T13:34:54;26.00;51.90
14555;DHT22;7364;50.870;4.722;2024-03-08T13:37:21;26.30;51.40
14555;DHT22;7364;50.870;4.722;2024-03-08T13:39:48;26.50;50.40
14555;DHT22;7364;50.870;4.722;2024-03-08T13:42:16;26.30;50.20
14555;DHT22;7364;50.870;4.722;2024-03-08T13:44:46;26.40;50.30
14555;DHT22;7364;50.870;4.722;2024-03-08T13:47:14;26.50;50.20
14555;DHT22;7364;50.870;4.722;2024-03-08T13:49:42;26.50;49.80
14555;DHT22;7364;50.870;4.722;2024-03-08T13:52:11;27.00;50.10
14555;DHT22;7364;50.870;4.722;2024-03-08T13:54:42;27.60;49.10
14555;DHT22;7364;50.870;4.722;2024-03-08T13:57:10;27.20;47.70
14555;DHT22;7364;50.870;4.722;2024-03-08T13:59:37;26.70;48.30
14555;DHT22;7364;50.870;4.722;2024-03-08T14:02:05;26.60;49.00
14555;DHT22;7364;50.870;4.722;2024-03-08T14:04:32;27.00;48.20
14555;DHT22;7364;50.870;4.722;2024-03-08T14:07:00;27.00;48.70
14555;DHT22;7364;50.870;4.722;2024-03-08T14:09:32;27.30;48.20
14555;DHT22;7364;50.870;4.722;2024-03-08T14:12:03;27.90;47.40
14555;DHT22;7364;50.870;4.722;2024-03-08T14:14:33;28.00;46.60
14555;DHT22;7364;50.870;4.722;2024-03-08T14:17:01;27.70;47.10
14555;DHT22;7364;50.870;4.722;2024-03-08T14:19:28;28.00;46.90
14555;DHT22;7364;50.870;4.722;2024-03-08T14:21:56;28.50;45.80
14555;DHT22;7364;50.870;4.722;2024-03-08T14:24:25;28.50;46.20
14555;DHT22;7364;50.870;4.722;2024-03-08T14:26:53;28.50;45.80
14555;DHT22;7364;50.870;4.722;2024-03-08T14:29:21;28.60;45.40
14555;DHT22;7364;50.870;4.722;2024-03-08T14:31:49;29.00;45.20
14555;DHT22;7364;50.870;4.722;2024-03-08T14:34:16;28.90;44.60
14555;DHT22;7364;50.870;4.722;2024-03-08T14:36:43;28.80;44.00
14555;DHT22;7364;50.870;4.722;2024-03-08T14:39:11;29.00;44.00
14555;DHT22;7364;50.870;4.722;2024-03-08T14:41:38;29.20;44.10
14555;DHT22;7364;50.870;4.722;2024-03-08T14:44:08;29.00;43.70
14555;DHT22;7364;50.870;4.722;2024-03-08T14:46:35;29.00;43.60
14555;DHT22;7364;50.870;4.722;2024-03-08T14:49:03;28.80;43.70
14555;DHT22;7364;50.870;4.722;2024-03-08T14:51:30;27.80;43.90
14555;DHT22;7364;50.870;4.722;2024-03-08T14:53:59;26.90;43.90
14555;DHT22;7364;50.870;4.722;2024-03-08T14:56:26;25.70;45.50
14555;DHT22;7364;50.870;4.722;2024-03-08T14:58:54;25.00;47.20
14555;DHT22;7364;50.870;4.722;2024-03-08T15:01:25;24.10;47.90
14555;DHT22;7364;50.870;4.722;2024-03-08T15:03:55;23.10;49.80
14555;DHT22;7364;50.870;4.722;2024-03-08T15:06:22;22.40;50.40
14555;DHT22;7364;50.870;4.722;2024-03-08T15:08:50;21.60;51.60
14555;DHT22;7364;50.870;4.722;2024-03-08T15:11:17;21.00;52.60
14555;DHT22;7364;50.870;4.722;2024-03-08T15:13:47;20.90;52.30
14555;DHT22;7364;50.870;4.722;2024-03-08T15:16:19;20.60;53.20
14555;DHT22;7364;50.870;4.722;2024-03-08T15:18:50;20.30;53.80
14555;DHT22;7364;50.870;4.722;2024-03-08T15:21:19;20.10;53.90
14555;DHT22;7364;50.870;4.722;2024-03-08T15:23:48;19.70;54.70
14555;DHT22;7364;50.870;4.722;2024-03-08T15:26:18;19.50;55.20
14555;DHT22;7364;50.870;4.722;2024-03-08T15:28:45;19.50;55.10
14555;DHT22;7364;50.870;4.722;2024-03-08T15:31:16;19.20;55.60
14555;DHT22;7364;50.870;4.722;2024-03-08T15:33:43;19.00;55.50
14555;DHT22;7364;50.870;4.722;2024-03-08T15:36:13;18.90;56.10
14555;DHT22;7364;50.870;4.722;2024-03-08T15:38:42;18.80;56.60
14555;DHT22;7364;50.870;4.722;2024-03-08T15:41:12;18.60;56.60
14555;DHT22;7364;50.870;4.722;2024-03-08T15:43:40;18.40;56.70
14555;DHT22;7364;50.870;4.722;2024-03-08T15:46:08;18.30;56.50
14555;DHT22;7364;50.870;4.722;2024-03-08T15:48:37;18.20;57.40
14555;DHT22;7364;50.870;4.722;2024-03-08T15:51:08;18.00;57.60
14555;DHT22;7364;50.870;4.722;2024-03-08T15:53:38;17.90;57.80
14555;DHT22;7364;50.870;4.722;2024-03-08T15:56:06;17.90;58.00
14555;DHT22;7364;50.870;4.722;2024-03-08T15:58:34;17.80;58.50
14555;DHT22;7364;50.870;4.722;2024-03-08T16:01:02;17.80;58.80
14555;DHT22;7364;50.870;4.722;2024-03-08T16:03:32;17.90;59.00